Time;durP1;ratioP1;P1;durP2;ratioP2;P2;SDS_P1;SDS_P2;PMS_P1;PMS_P2;Temp;Humidity;BMP_temperature;BMP_pressure;BME280_temperature;BME280_humidity;BME280_pressure;Samples;Min_cycle;Max_cycle;Signal;HPM_P1;HPM_P2
2022/05/16 00:01:08;;;;;;;;;;;14.80;99.90;;;;;;5051626;28;19932;-73
2022/05/16 00:03:40;;;;;;;;;;;14.80;99.90;;;;;;5049913;28;19929;-73
2022/05/16 00:06:11;;;;;;;;;;;14.70;99.90;;;;;;5058236;28;20454;-73
2022/05/16 00:08:43;;;;;;;;;;;14.60;99.90;;;;;;5067680;28;20385;-73
2022/05/16 00:11:14;;;;;;;;;;;14.60;99.90;;;;;;5065838;28;19928;-73
2022/05/16 00:13:47;;;;;;;;;;;14.40;99.90;;;;;;5049697;28;19925;-73
2022/05/16 00:16:19;;;;;;;;;;;14.40;99.90;;;;;;5063898;28;19928;-73
2022/05/16 00:18:51;;;;;;;;;;;14.40;99.90;;;;;;5056449;28;19925;-73
2022/05/16 00:21:24;;;;;;;;;;;14.50;99.90;;;;;;5058503;28;19936;-73
2022/05/16 00:23:56;;;;;;;;;;;14.50;99.90;;;;;;5053420;28;20183;-73
2022/05/16 00:26:27;;;;;;;;;;;14.50;99.90;;;;;;5060947;28;19925;-73
2022/05/16 00:28:59;;;;;;;;;;;14.60;99.90;;;;;;5053119;28;19932;-73
2022/05/16 00:31:32;;;;;;;;;;;14.50;99.90;;;;;;5057470;28;20439;-73
2022/05/16 00:34:03;;;;;;;;;;;14.50;99.90;;;;;;5055014;28;20369;-73
2022/05/16 00:36:35;;;;;;;;;;;14.50;99.90;;;;;;5059966;28;20024;-73
2022/05/16 00:39:02;;;;;;;;;;;14.50;99.90;;;;;;5060740;28;19928;-73
2022/05/16 00:41:35;;;;;;;;;;;14.50;99.90;;;;;;5053835;28;20274;-73
2022/05/16 00:44:07;;;;;;;;;;;14.40;99.90;;;;;;5074096;28;19929;-73
2022/05/16 00:46:38;;;;;;;;;;;14.40;99.90;;;;;;5058944;28;19924;-73
2022/05/16 00:49:15;;;;;;;;;;;14.40;99.90;;;;;;5060148;28;19928;-73
2022/05/16 00:51:48;;;;;;;;;;;14.40;99.90;;;;;;5053550;28;19932;-73
2022/05/16 00:54:23;;;;;;;;;;;14.30;99.90;;;;;;5054908;28;19928;-73
2022/05/16 00:56:59;;;;;;;;;;;14.30;99.90;;;;;;5056041;28;19928;-73
2022/05/16 00:59:34;;;;;;;;;;;14.30;99.90;;;;;;5055529;28;19931;-73
2022/05/16 01:04:56;;;;;;;;;;;14.20;99.90;;;;;;5056724;28;20383;-73
2022/05/16 01:07:30;;;;;;;;;;;14.10;99.90;;;;;;5065789;28;19931;-73
2022/05/16 01:10:03;;;;;;;;;;;14.00;99.90;;;;;;5054567;28;20394;-73
2022/05/16 01:12:36;;;;;;;;;;;14.10;99.90;;;;;;5056277;28;19924;-73
2022/05/16 01:15:09;;;;;;;;;;;14.10;99.90;;;;;;5062384;28;19935;-73
2022/05/16 01:17:41;;;;;;;;;;;14.20;99.90;;;;;;5061043;28;19935;-73
2022/05/16 01:20:13;;;;;;;;;;;14.20;99.90;;;;;;5065990;28;19924;-73
2022/05/16 01:22:46;;;;;;;;;;;14.20;99.90;;;;;;5047721;28;19925;-73
2022/05/16 01:25:29;;;;;;;;;;;14.10;99.90;;;;;;5059325;28;20452;-73
2022/05/16 01:27:57;;;;;;;;;;;14.00;99.90;;;;;;5058263;28;20381;-73
2022/05/16 01:30:30;;;;;;;;;;;14.00;99.90;;;;;;5049822;28;20389;-73
2022/05/16 01:33:02;;;;;;;;;;;14.00;99.90;;;;;;5063384;28;19928;-73
2022/05/16 01:35:30;;;;;;;;;;;14.10;99.90;;;;;;5048815;28;19932;-73
2022/05/16 01:38:21;;;;;;;;;;;14.10;99.90;;;;;;5050198;28;19929;-73
2022/05/16 01:41:02;;;;;;;;;;;14.10;99.90;;;;;;5055551;28;19943;-73
2022/05/16 01:43:39;;;;;;;;;;;14.10;99.90;;;;;;5057513;28;19936;-73
2022/05/16 01:46:12;;;;;;;;;;;14.00;99.90;;;;;;5059186;28;19936;-73
2022/05/16 01:48:43;;;;;;;;;;;13.90;99.90;;;;;;5060075;28;19929;-73
2022/05/16 01:51:15;;;;;;;;;;;14.00;99.90;;;;;;5054606;28;19929;-73
2022/05/16 01:53:47;;;;;;;;;;;14.00;99.90;;;;;;5062077;28;19928;-73
2022/05/16 01:56:14;;;;;;;;;;;14.00;99.90;;;;;;5061419;28;19925;-73
2022/05/16 01:58:46;;;;;;;;;;;13.90;99.90;;;;;;5059548;28;20427;-73
2022/05/16 02:01:12;;;;;;;;;;;13.90;99.90;;;;;;5054046;28;20294;-73
2022/05/16 02:03:46;;;;;;;;;;;13.90;99.90;;;;;;5059440;28;19928;-73
2022/05/16 02:06:18;;;;;;;;;;;13.80;99.90;;;;;;5057874;28;19925;-73
2022/05/16 02:08:49;;;;;;;;;;;13.80;99.90;;;;;;5063372;28;19925;-73
2022/05/16 02:11:21;;;;;;;;;;;13.70;99.90;;;;;;5068240;28;20296;-73
2022/05/16 02:13:54;;;;;;;;;;;13.70;99.90;;;;;;5067730;28;20728;-73
2022/05/16 02:16:25;;;;;;;;;;;13.80;99.90;;;;;;5068525;28;19932;-73
2022/05/16 02:18:57;;;;;;;;;;;13.80;99.90;;;;;;5057290;28;19929;-73
2022/05/16 02:27:04;;;;;;;;;;;13.90;99.90;;;;;;5062860;28;19936;-72
2022/05/16 02:29:36;;;;;;;;;;;13.80;99.90;;;;;;5066687;28;20289;-73
2022/05/16 02:32:08;;;;;;;;;;;13.80;99.90;;;;;;5063489;28;19924;-73
2022/05/16 02:34:40;;;;;;;;;;;13.90;99.90;;;;;;5056529;28;20389;-73
2022/05/16 02:37:13;;;;;;;;;;;13.90;99.90;;;;;;5066433;28;19924;-73
2022/05/16 02:39:45;;;;;;;;;;;13.90;99.90;;;;;;5058617;28;19935;-73
2022/05/16 02:42:16;;;;;;;;;;;14.00;99.90;;;;;;5055154;28;19925;-73
2022/05/16 02:44:48;;;;;;;;;;;14.00;99.90;;;;;;5068193;28;20015;-74
2022/05/16 02:47:21;;;;;;;;;;;14.00;99.90;;;;;;5062524;28;19932;-73
2022/05/16 02:49:48;;;;;;;;;;;13.90;99.90;;;;;;5052209;28;19928;-73
2022/05/16 02:52:20;;;;;;;;;;;13.90;99.90;;;;;;5052181;28;20298;-73
2022/05/16 02:54:52;;;;;;;;;;;13.80;99.90;;;;;;5058401;28;19924;-73
2022/05/16 02:57:23;;;;;;;;;;;13.90;99.90;;;;;;5065552;28;19931;-73
2022/05/16 02:59:56;;;;;;;;;;;13.90;99.90;;;;;;5059894;28;20011;-73
2022/05/16 03:02:24;;;;;;;;;;;13.90;99.90;;;;;;5063634;28;19963;-73
2022/05/16 03:04:56;;;;;;;;;;;13.90;99.90;;;;;;5066616;28;20341;-73
2022/05/16 03:07:28;;;;;;;;;;;13.80;99.90;;;;;;5063225;28;20411;-73
2022/05/16 03:09:54;;;;;;;;;;;13.90;99.90;;;;;;5052200;28;19925;-73
2022/05/16 03:12:26;;;;;;;;;;;13.80;99.90;;;;;;5062939;28;19933;-73
2022/05/16 03:14:57;;;;;;;;;;;13.80;99.90;;;;;;5061798;28;20403;-73
2022/05/16 03:17:29;;;;;;;;;;;13.80;99.90;;;;;;5059018;28;19924;-73
2022/05/16 03:20:00;;;;;;;;;;;13.80;99.90;;;;;;5065981;28;19925;-73
2022/05/16 03:22:32;;;;;;;;;;;13.80;99.90;;;;;;5068875;28;20373;-73
2022/05/16 03:25:04;;;;;;;;;;;13.70;99.90;;;;;;5061260;28;19928;-73
2022/05/16 03:27:36;;;;;;;;;;;13.70;99.90;;;;;;5061592;28;19933;-73
2022/05/16 03:30:09;;;;;;;;;;;13.70;99.90;;;;;;5061339;28;20038;-73
2022/05/16 03:32:40;;;;;;;;;;;13.70;99.90;;;;;;5062601;28;19947;-72
2022/05/16 03:35:12;;;;;;;;;;;13.80;99.90;;;;;;5061638;28;20023;-73
2022/05/16 03:37:44;;;;;;;;;;;13.80;99.90;;;;;;5060243;28;19936;-73
2022/05/16 03:43:06;;;;;;;;;;;13.80;99.90;;;;;;5057584;28;19929;-73
2022/05/16 03:45:38;;;;;;;;;;;13.80;99.90;;;;;;5057989;28;19929;-73
2022/05/16 03:48:10;;;;;;;;;;;13.70;99.90;;;;;;5062938;28;19929;-73
2022/05/16 03:50:41;;;;;;;;;;;13.70;99.90;;;;;;5068887;28;19928;-73
2022/05/16 03:53:13;;;;;;;;;;;13.60;99.90;;;;;;5063704;28;19924;-72
2022/05/16 03:55:44;;;;;;;;;;;13.60;99.90;;;;;;5065989;28;20286;-73
2022/05/16 03:58:16;;;;;;;;;;;13.70;99.90;;;;;;5066843;28;20404;-73
2022/05/16 04:00:48;;;;;;;;;;;13.80;99.90;;;;;;5054847;28;19925;-73
2022/05/16 04:03:19;;;;;;;;;;;13.80;99.90;;;;;;5065567;28;19925;-73
2022/05/16 04:05:46;;;;;;;;;;;13.80;99.90;;;;;;5056847;28;19935;-73
2022/05/16 04:08:12;;;;;;;;;;;13.90;99.90;;;;;;5060631;28;19924;-72
2022/05/16 04:10:44;;;;;;;;;;;13.90;99.90;;;;;;5062763;28;19932;-73
2022/05/16 04:13:16;;;;;;;;;;;14.00;99.90;;;;;;5068928;28;19933;-72
2022/05/16 04:15:47;;;;;;;;;;;14.00;99.90;;;;;;5062060;28;19925;-73
2022/05/16 04:18:19;;;;;;;;;;;14.00;99.90;;;;;;5071166;28;19933;-72
2022/05/16 04:20:50;;;;;;;;;;;14.00;99.90;;;;;;5068475;28;19933;-73
2022/05/16 04:23:22;;;;;;;;;;;14.00;99.90;;;;;;5061585;28;20027;-73
2022/05/16 04:25:54;;;;;;;;;;;14.00;99.90;;;;;;5066372;28;19932;-73
2022/05/16 04:28:25;;;;;;;;;;;14.10;99.90;;;;;;5062476;28;20014;-73
2022/05/16 04:30:57;;;;;;;;;;;14.10;99.90;;;;;;5055916;28;19944;-73
2022/05/16 04:33:28;;;;;;;;;;;14.10;99.90;;;;;;5059464;28;19932;-73
2022/05/16 04:36:01;;;;;;;;;;;14.10;99.90;;;;;;5056700;28;19928;-73
2022/05/16 04:38:32;;;;;;;;;;;14.10;99.90;;;;;;5060713;28;19932;-73
2022/05/16 04:43:54;;;;;;;;;;;14.10;99.90;;;;;;5059347;28;19931;-73
2022/05/16 04:46:26;;;;;;;;;;;14.10;99.90;;;;;;5063387;28;19928;-73
2022/05/16 04:48:58;;;;;;;;;;;14.10;99.90;;;;;;5060395;28;19963;-73
2022/05/16 04:51:29;;;;;;;;;;;14.10;99.90;;;;;;5069055;28;19939;-72
2022/05/16 04:54:01;;;;;;;;;;;14.10;99.90;;;;;;5063021;28;20381;-73
2022/05/16 04:56:33;;;;;;;;;;;14.10;99.90;;;;;;5063925;28;20345;-73
2022/05/16 04:59:06;;;;;;;;;;;14.10;99.90;;;;;;5061552;28;19931;-73
2022/05/16 05:01:37;;;;;;;;;;;14.10;99.90;;;;;;5067537;28;19935;-73
2022/05/16 05:04:09;;;;;;;;;;;14.00;99.90;;;;;;5065091;28;20301;-73
2022/05/16 05:06:41;;;;;;;;;;;14.10;99.90;;;;;;5063290;28;20377;-73
2022/05/16 05:09:12;;;;;;;;;;;14.10;99.90;;;;;;5056655;28;19925;-73
2022/05/16 05:14:35;;;;;;;;;;;14.20;99.90;;;;;;5058950;28;19929;-73
2022/05/16 05:17:08;;;;;;;;;;;14.30;99.90;;;;;;5060711;28;19932;-73
2022/05/16 05:19:40;;;;;;;;;;;14.40;99.90;;;;;;5077861;28;19929;-73
2022/05/16 05:22:13;;;;;;;;;;;14.50;99.90;;;;;;5065050;28;19924;-73
2022/05/16 05:24:44;;;;;;;;;;;14.60;99.90;;;;;;5057932;28;19929;-73
2022/05/16 05:27:16;;;;;;;;;;;14.70;99.90;;;;;;5068494;28;19936;-73
2022/05/16 05:29:48;;;;;;;;;;;14.70;99.90;;;;;;5062095;28;19936;-73
2022/05/16 05:32:20;;;;;;;;;;;14.80;99.90;;;;;;5058513;28;20389;-73
2022/05/16 05:34:52;;;;;;;;;;;14.80;99.90;;;;;;5065364;28;20331;-73
2022/05/16 05:37:23;;;;;;;;;;;14.90;99.90;;;;;;5073453;28;19931;-73
2022/05/16 05:39:58;;;;;;;;;;;14.90;99.90;;;;;;5071259;28;20317;-73
2022/05/16 05:42:31;;;;;;;;;;;14.90;99.90;;;;;;5063929;28;19925;-73
2022/05/16 05:45:03;;;;;;;;;;;15.00;99.90;;;;;;5062202;28;19928;-73
2022/05/16 05:47:35;;;;;;;;;;;15.00;99.90;;;;;;5067857;28;19928;-73
2022/05/16 05:50:02;;;;;;;;;;;15.00;99.90;;;;;;5066924;28;19928;-73
2022/05/16 05:52:34;;;;;;;;;;;14.90;99.90;;;;;;5066061;28;19929;-73
2022/05/16 05:55:06;;;;;;;;;;;14.90;99.90;;;;;;5066485;28;19931;-72
2022/05/16 05:57:38;;;;;;;;;;;14.90;99.90;;;;;;5060858;28;19948;-73
2022/05/16 06:00:11;;;;;;;;;;;14.90;99.90;;;;;;5061206;28;19935;-73
2022/05/16 06:02:43;;;;;;;;;;;14.90;99.90;;;;;;5056246;28;20011;-73
2022/05/16 06:05:16;;;;;;;;;;;15.00;99.90;;;;;;5064851;28;19924;-73
2022/05/16 06:07:43;;;;;;;;;;;15.00;99.90;;;;;;5055355;28;19938;-73
2022/05/16 06:10:15;;;;;;;;;;;14.90;99.90;;;;;;5064578;28;19925;-73
2022/05/16 06:12:46;;;;;;;;;;;14.90;99.90;;;;;;5065640;28;20305;-73
2022/05/16 06:15:18;;;;;;;;;;;15.00;99.90;;;;;;5062014;28;20494;-73
2022/05/16 06:17:50;;;;;;;;;;;15.10;99.90;;;;;;5064516;28;19936;-72
2022/05/16 06:20:21;;;;;;;;;;;15.10;99.90;;;;;;5068814;28;19924;-73
2022/05/16 06:22:54;;;;;;;;;;;15.20;99.90;;;;;;5061347;28;19924;-73
2022/05/16 06:25:32;;;;;;;;;;;15.20;99.90;;;;;;5065456;28;20404;-73
2022/05/16 06:28:05;;;;;;;;;;;15.30;99.90;;;;;;5063645;28;20412;-73
2022/05/16 06:30:33;;;;;;;;;;;15.60;99.90;;;;;;5071606;28;19925;-73
2022/05/16 06:33:05;;;;;;;;;;;16.00;99.90;;;;;;5065117;28;19948;-73
2022/05/16 06:35:37;;;;;;;;;;;16.40;99.90;;;;;;5063747;28;19936;-73
2022/05/16 06:38:13;;;;;;;;;;;16.60;99.90;;;;;;5064717;28;20324;-73
2022/05/16 06:40:41;;;;;;;;;;;16.80;99.90;;;;;;5079503;28;19933;-72
2022/05/16 06:43:13;;;;;;;;;;;17.00;99.90;;;;;;5059139;28;19929;-72
2022/05/16 06:45:45;;;;;;;;;;;17.10;99.90;;;;;;5062317;28;19929;-72
2022/05/16 06:48:17;;;;;;;;;;;17.20;99.90;;;;;;5063620;28;19928;-73
2022/05/16 06:50:49;;;;;;;;;;;17.40;99.90;;;;;;5066979;28;19931;-73
2022/05/16 06:53:23;;;;;;;;;;;17.50;99.90;;;;;;5068930;28;19924;-73
2022/05/16 06:55:55;;;;;;;;;;;17.60;99.90;;;;;;5065118;28;19928;-73
2022/05/16 06:58:27;;;;;;;;;;;17.70;99.90;;;;;;5070054;28;19928;-72
2022/05/16 07:00:58;;;;;;;;;;;17.80;99.90;;;;;;5102184;27;19929;-73
2022/05/16 07:03:30;;;;;;;;;;;17.60;99.90;;;;;;5100149;27;19929;-74
2022/05/16 07:06:02;;;;;;;;;;;17.40;99.90;;;;;;5068822;28;19959;-74
2022/05/16 07:08:33;;;;;;;;;;;17.10;99.90;;;;;;5072391;28;19931;-74
2022/05/16 07:11:00;;;;;;;;;;;16.80;99.90;;;;;;5070953;28;19925;-74
2022/05/16 07:13:27;;;;;;;;;;;16.50;99.90;;;;;;5069982;28;20507;-74
2022/05/16 07:15:58;;;;;;;;;;;16.30;99.90;;;;;;5068896;28;19932;-74
2022/05/16 07:18:30;;;;;;;;;;;16.20;99.90;;;;;;5067785;28;19928;-74
2022/05/16 07:21:01;;;;;;;;;;;16.20;99.90;;;;;;5069064;28;19928;-74
2022/05/16 07:23:33;;;;;;;;;;;16.10;99.90;;;;;;5071031;28;19936;-74
2022/05/16 07:28:55;;;;;;;;;;;16.10;99.90;;;;;;5065795;28;19928;-74
2022/05/16 07:31:27;;;;;;;;;;;16.10;99.90;;;;;;5068194;28;19932;-74
2022/05/16 07:34:00;;;;;;;;;;;16.10;99.90;;;;;;5069625;28;19929;-74
2022/05/16 07:36:32;;;;;;;;;;;16.10;99.90;;;;;;5068295;28;19936;-74
2022/05/16 07:39:03;;;;;;;;;;;16.20;99.90;;;;;;5078043;28;19925;-73
2022/05/16 07:41:35;;;;;;;;;;;16.30;99.90;;;;;;5066073;28;19928;-74
2022/05/16 07:44:07;;;;;;;;;;;16.30;99.90;;;;;;5065531;28;19932;-74
2022/05/16 07:46:39;;;;;;;;;;;16.40;99.90;;;;;;5069079;28;19935;-74
2022/05/16 07:49:13;;;;;;;;;;;16.40;99.90;;;;;;5070293;28;20304;-73
2022/05/16 07:51:45;;;;;;;;;;;16.50;99.90;;;;;;5068111;28;19933;-73
2022/05/16 07:54:16;;;;;;;;;;;16.60;99.90;;;;;;5064437;28;20023;-73
2022/05/16 07:56:48;;;;;;;;;;;16.70;99.90;;;;;;5051211;28;20101;-73
2022/05/16 07:59:19;;;;;;;;;;;16.90;99.90;;;;;;5066909;28;19935;-73
2022/05/16 08:01:51;;;;;;;;;;;17.00;99.90;;;;;;5106598;28;20074;-74
2022/05/16 08:04:23;;;;;;;;;;;17.10;99.90;;;;;;5065903;28;20512;-74
2022/05/16 08:06:55;;;;;;;;;;;17.10;99.90;;;;;;5079406;28;20027;-74
2022/05/16 08:12:12;;;;;;;;;;;17.20;99.90;;;;;;5061915;28;19925;-73
2022/05/16 08:14:44;;;;;;;;;;;17.20;99.90;;;;;;5066725;28;19925;-73
2022/05/16 08:17:15;;;;;;;;;;;17.20;99.90;;;;;;5067495;28;19929;-73
2022/05/16 08:19:47;;;;;;;;;;;17.30;99.90;;;;;;5041100;28;19933;-73
2022/05/16 08:22:18;;;;;;;;;;;17.30;99.90;;;;;;5066453;28;20384;-73
2022/05/16 08:24:50;;;;;;;;;;;17.30;99.90;;;;;;5058187;28;19968;-73
2022/05/16 08:27:22;;;;;;;;;;;17.30;99.90;;;;;;5068840;28;19925;-73
2022/05/16 08:29:54;;;;;;;;;;;17.30;99.90;;;;;;5067000;28;19934;-73
2022/05/16 08:32:25;;;;;;;;;;;17.30;99.90;;;;;;5057584;28;19948;-73
2022/05/16 08:35:03;;;;;;;;;;;17.40;99.90;;;;;;5066273;28;19933;-73
2022/05/16 08:40:37;;;;;;;;;;;17.50;99.90;;;;;;5080872;28;19931;-73
2022/05/16 08:43:15;;;;;;;;;;;17.50;99.90;;;;;;5065573;28;19932;-73
2022/05/16 08:45:51;;;;;;;;;;;17.50;99.90;;;;;;5049375;28;19925;-73
2022/05/16 08:48:25;;;;;;;;;;;17.50;99.90;;;;;;5059967;28;19928;-73
2022/05/16 08:51:04;;;;;;;;;;;17.60;99.90;;;;;;5079132;28;20416;-72
2022/05/16 08:53:46;;;;;;;;;;;17.50;99.90;;;;;;5081659;28;19928;-74
2022/05/16 08:56:19;;;;;;;;;;;17.50;99.90;;;;;;5064316;28;19932;-74
2022/05/16 08:58:58;;;;;;;;;;;17.50;99.90;;;;;;5065508;28;19940;-74
2022/05/16 09:01:34;;;;;;;;;;;17.40;99.90;;;;;;5063810;28;19929;-74
2022/05/16 09:04:10;;;;;;;;;;;17.40;99.90;;;;;;5058080;28;19935;-74
2022/05/16 09:06:46;;;;;;;;;;;17.40;99.90;;;;;;5067349;28;19928;-74
2022/05/16 09:09:20;;;;;;;;;;;17.40;99.90;;;;;;5068001;28;20400;-74
2022/05/16 09:12:17;;;;;;;;;;;17.30;99.90;;;;;;5066803;28;19929;-74
2022/05/16 09:14:55;;;;;;;;;;;17.30;99.90;;;;;;5064681;28;19925;-74
2022/05/16 09:17:30;;;;;;;;;;;17.30;99.90;;;;;;5068577;28;19928;-73
2022/05/16 09:20:02;;;;;;;;;;;17.30;99.90;;;;;;5070768;28;20309;-74
2022/05/16 09:22:40;;;;;;;;;;;17.20;99.90;;;;;;5070014;28;19929;-74
2022/05/16 09:25:20;;;;;;;;;;;17.10;99.90;;;;;;5067059;28;19935;-74
2022/05/16 09:30:56;;;;;;;;;;;17.20;99.90;;;;;;5061459;28;20487;-74
2022/05/16 09:33:25;;;;;;;;;;;17.10;99.90;;;;;;5064759;28;20019;-74
2022/05/16 09:36:07;;;;;;;;;;;17.20;99.90;;;;;;5068738;28;19925;-74
2022/05/16 09:38:43;;;;;;;;;;;17.20;99.90;;;;;;5071297;28;19928;-74
2022/05/16 09:41:36;;;;;;;;;;;17.30;99.90;;;;;;5061678;28;20027;-74
2022/05/16 09:44:24;;;;;;;;;;;17.40;99.90;;;;;;5063247;28;19925;-74
2022/05/16 09:47:15;;;;;;;;;;;17.50;99.90;;;;;;5069324;28;19931;-74
2022/05/16 09:50:02;;;;;;;;;;;17.50;99.90;;;;;;5067517;28;19929;-73
2022/05/16 09:52:30;;;;;;;;;;;17.60;99.90;;;;;;5067481;28;20194;-73
2022/05/16 09:55:04;;;;;;;;;;;17.80;99.90;;;;;;5069198;28;19928;-73
2022/05/16 09:58:08;;;;;;;;;;;17.80;99.90;;;;;;5066698;28;19933;-74
2022/05/16 10:00:44;;;;;;;;;;;17.80;99.90;;;;;;5051028;28;19932;-73
2022/05/16 10:03:29;;;;;;;;;;;17.90;99.90;;;;;;5066651;28;19931;-74
2022/05/16 10:06:03;;;;;;;;;;;18.00;99.90;;;;;;5064534;28;20430;-74
2022/05/16 10:08:38;;;;;;;;;;;18.10;99.90;;;;;;5066844;28;20007;-73
2022/05/16 10:11:17;;;;;;;;;;;18.10;99.90;;;;;;5070318;28;19947;-73
2022/05/16 10:13:49;;;;;;;;;;;18.30;99.90;;;;;;5063458;28;19931;-74
2022/05/16 10:16:22;;;;;;;;;;;18.40;99.90;;;;;;5068045;28;19928;-73
2022/05/16 10:18:56;;;;;;;;;;;18.60;99.90;;;;;;5070493;28;19929;-73
2022/05/16 10:21:34;;;;;;;;;;;18.60;99.90;;;;;;5071352;28;19970;-74
2022/05/16 10:24:08;;;;;;;;;;;18.70;99.90;;;;;;5066665;28;19928;-73
2022/05/16 10:26:42;;;;;;;;;;;18.80;99.90;;;;;;5063866;28;19924;-73
2022/05/16 10:29:16;;;;;;;;;;;18.90;99.90;;;;;;5066514;28;20009;-73
2022/05/16 10:34:44;;;;;;;;;;;19.10;99.90;;;;;;5080000;28;19979;-73
2022/05/16 10:37:16;;;;;;;;;;;19.20;99.90;;;;;;5069199;28;20385;-73
2022/05/16 10:39:45;;;;;;;;;;;19.30;99.90;;;;;;5065744;28;19947;-74
2022/05/16 10:42:43;;;;;;;;;;;19.30;99.90;;;;;;5060519;28;19931;-73
2022/05/16 10:45:19;;;;;;;;;;;19.40;99.90;;;;;;5049997;28;19936;-73
2022/05/16 10:47:57;;;;;;;;;;;19.40;99.90;;;;;;5060843;28;20409;-73
2022/05/16 10:50:42;;;;;;;;;;;19.40;99.90;;;;;;5058035;28;20417;-73
2022/05/16 10:53:19;;;;;;;;;;;19.50;99.90;;;;;;5070516;28;20385;-72
2022/05/16 10:56:09;;;;;;;;;;;19.60;99.90;;;;;;5061584;28;19924;-73
2022/05/16 10:59:01;;;;;;;;;;;19.60;99.90;;;;;;5062015;28;19928;-74
2022/05/16 11:01:46;;;;;;;;;;;19.70;99.90;;;;;;5068166;28;19925;-73
2022/05/16 11:04:18;;;;;;;;;;;19.80;99.90;;;;;;5062022;28;19941;-73
2022/05/16 11:07:20;;;;;;;;;;;19.90;99.90;;;;;;5068834;28;19935;-72
2022/05/16 11:10:01;;;;;;;;;;;20.00;99.90;;;;;;5061568;28;19924;-73
2022/05/16 11:13:00;;;;;;;;;;;20.10;99.90;;;;;;5055489;28;20313;-72
2022/05/16 11:15:34;;;;;;;;;;;20.40;99.90;;;;;;5051269;28;19924;-73
2022/05/16 11:18:23;;;;;;;;;;;20.80;99.90;;;;;;5064194;28;19925;-73
2022/05/16 11:21:04;;;;;;;;;;;21.10;99.90;;;;;;5064857;28;19924;-73
2022/05/16 11:23:48;;;;;;;;;;;21.30;99.90;;;;;;5069642;28;20020;-73
2022/05/16 11:26:43;;;;;;;;;;;21.50;99.90;;;;;;5062879;28;19932;-73
2022/05/16 11:29:21;;;;;;;;;;;21.80;99.90;;;;;;5051778;28;20024;-73
2022/05/16 11:31:52;;;;;;;;;;;22.00;99.90;;;;;;5062806;28;19925;-73
2022/05/16 11:34:49;;;;;;;;;;;22.10;99.90;;;;;;5054239;28;19924;-74
2022/05/16 11:37:47;;;;;;;;;;;22.40;99.90;;;;;;5061588;28;19954;-73
2022/05/16 11:40:28;;;;;;;;;;;22.50;99.90;;;;;;5068764;28;19935;-73
2022/05/16 11:43:03;;;;;;;;;;;22.60;99.90;;;;;;5054670;28;19932;-73
2022/05/16 11:45:54;;;;;;;;;;;22.50;99.90;;;;;;5065071;28;20388;-73
2022/05/16 11:48:38;;;;;;;;;;;22.40;99.90;;;;;;5065801;28;19931;-73
2022/05/16 11:51:15;;;;;;;;;;;22.40;99.90;;;;;;5072290;28;20392;-72
2022/05/16 11:53:49;;;;;;;;;;;22.50;99.90;;;;;;5051317;28;20739;-73
2022/05/16 12:02:11;;;;;;;;;;;22.70;99.90;;;;;;5056757;28;19943;-73
2022/05/16 12:04:47;;;;;;;;;;;22.70;99.90;;;;;;5061380;28;20388;-73
2022/05/16 12:07:28;;;;;;;;;;;22.90;99.90;;;;;;5062110;28;19928;-72
2022/05/16 12:10:02;;;;;;;;;;;22.90;99.90;;;;;;5051995;28;19936;-73
2022/05/16 12:12:37;;;;;;;;;;;23.10;99.90;;;;;;5062440;28;20424;-73
2022/05/16 12:15:10;;;;;;;;;;;23.30;99.90;;;;;;5091361;28;19932;-73
2022/05/16 12:17:55;;;;;;;;;;;23.30;99.90;;;;;;5075661;28;19938;-73
2022/05/16 12:20:35;;;;;;;;;;;23.40;99.90;;;;;;5069703;28;19925;-74
2022/05/16 12:23:08;;;;;;;;;;;23.40;99.90;;;;;;5079768;28;19928;-73
2022/05/16 12:25:41;;;;;;;;;;;23.60;99.90;;;;;;5067672;28;20392;-73
2022/05/16 12:28:13;;;;;;;;;;;23.70;99.90;;;;;;5077180;28;19928;-73
2022/05/16 12:30:55;;;;;;;;;;;24.00;99.90;;;;;;5065835;28;19928;-73
2022/05/16 12:33:42;;;;;;;;;;;23.90;99.90;;;;;;5064506;28;19929;-73
2022/05/16 12:36:18;;;;;;;;;;;23.90;99.90;;;;;;5066142;28;20011;-73
2022/05/16 12:38:53;;;;;;;;;;;23.70;99.90;;;;;;5070345;28;19928;-73
2022/05/16 12:41:51;;;;;;;;;;;23.60;99.90;;;;;;5068386;28;20408;-73
2022/05/16 12:44:31;;;;;;;;;;;23.50;99.90;;;;;;5064789;28;19931;-73
2022/05/16 12:47:06;;;;;;;;;;;23.80;99.90;;;;;;5069695;28;19929;-73
2022/05/16 12:49:44;;;;;;;;;;;24.00;99.90;;;;;;5064379;28;20027;-73
2022/05/16 12:52:25;;;;;;;;;;;24.20;99.90;;;;;;5068656;28;19935;-73
2022/05/16 12:55:05;;;;;;;;;;;24.40;99.90;;;;;;5056612;28;20420;-73
2022/05/16 12:57:41;;;;;;;;;;;24.30;99.90;;;;;;5066321;28;20019;-73
2022/05/16 13:00:19;;;;;;;;;;;24.00;99.90;;;;;;5067853;28;19928;-73
2022/05/16 13:02:56;;;;;;;;;;;23.70;99.90;;;;;;5065853;28;19928;-73
2022/05/16 13:05:34;;;;;;;;;;;23.40;99.90;;;;;;5057755;28;19929;-73
2022/05/16 13:08:24;;;;;;;;;;;23.10;99.90;;;;;;5052991;28;19974;-72
2022/05/16 13:11:13;;;;;;;;;;;22.40;99.90;;;;;;5052250;28;19948;-74
2022/05/16 13:13:48;;;;;;;;;;;21.70;99.90;;;;;;5062954;28;19929;-74
2022/05/16 13:16:22;;;;;;;;;;;21.20;99.90;;;;;;5065409;28;20018;-74
2022/05/16 13:19:07;;;;;;;;;;;20.80;99.90;;;;;;5069046;28;19931;-73
2022/05/16 13:21:41;;;;;;;;;;;20.50;99.90;;;;;;5060112;28;20030;-73
2022/05/16 13:24:14;;;;;;;;;;;20.20;99.90;;;;;;5062203;28;20356;-72
2022/05/16 13:29:34;;;;;;;;;;;19.80;99.90;;;;;;5065786;28;19924;-73
2022/05/16 13:32:18;;;;;;;;;;;19.50;99.90;;;;;;5059074;28;19924;-73
2022/05/16 13:34:51;;;;;;;;;;;19.30;99.90;;;;;;5068133;28;19925;-72
2022/05/16 13:37:24;;;;;;;;;;;19.10;99.90;;;;;;5066055;28;19929;-72
2022/05/16 13:40:13;;;;;;;;;;;19.00;99.90;;;;;;5070456;28;20456;-73
2022/05/16 13:42:44;;;;;;;;;;;18.90;99.90;;;;;;5063632;28;19931;-73
2022/05/16 13:45:20;;;;;;;;;;;18.90;99.90;;;;;;5059486;28;19931;-71
2022/05/16 13:47:52;;;;;;;;;;;19.00;99.90;;;;;;5060668;28;19936;-72
2022/05/16 13:50:26;;;;;;;;;;;19.20;99.90;;;;;;5060255;28;20312;-72
2022/05/16 13:52:57;;;;;;;;;;;19.20;99.90;;;;;;5061835;28;19925;-72
2022/05/16 13:55:32;;;;;;;;;;;19.10;99.90;;;;;;5068594;28;19935;-72
2022/05/16 13:58:05;;;;;;;;;;;19.00;99.90;;;;;;5060080;28;19947;-72
2022/05/16 14:00:32;;;;;;;;;;;19.00;99.90;;;;;;5090004;28;19925;-73
2022/05/16 14:03:00;;;;;;;;;;;19.00;99.90;;;;;;5080649;28;19946;-73
2022/05/16 14:05:35;;;;;;;;;;;19.00;99.90;;;;;;5069352;28;19925;-72
2022/05/16 14:08:26;;;;;;;;;;;19.00;99.90;;;;;;5066881;28;19924;-73
2022/05/16 14:10:57;;;;;;;;;;;19.00;99.90;;;;;;5053139;28;20389;-72
2022/05/16 14:13:29;;;;;;;;;;;18.90;99.90;;;;;;5054439;28;19928;-72
2022/05/16 14:16:06;;;;;;;;;;;18.90;99.90;;;;;;5065600;28;20416;-72
2022/05/16 14:18:43;;;;;;;;;;;19.00;99.90;;;;;;5065961;28;19925;-72
2022/05/16 14:21:26;;;;;;;;;;;19.20;99.90;;;;;;5068643;28;19930;-72
2022/05/16 14:24:02;;;;;;;;;;;19.40;99.90;;;;;;5064884;28;19929;-72
2022/05/16 14:26:34;;;;;;;;;;;19.80;99.90;;;;;;5072179;28;19924;-73
2022/05/16 14:29:22;;;;;;;;;;;20.30;99.90;;;;;;5070157;28;19971;-73
2022/05/16 14:31:54;;;;;;;;;;;20.70;99.90;;;;;;5055241;28;19925;-73
2022/05/16 14:34:27;;;;;;;;;;;21.30;99.90;;;;;;5067427;28;19925;-73
2022/05/16 14:37:13;;;;;;;;;;;21.50;99.90;;;;;;5081258;28;20007;-73
2022/05/16 14:39:51;;;;;;;;;;;21.70;99.90;;;;;;5062537;28;20016;-73
2022/05/16 14:42:22;;;;;;;;;;;21.80;99.90;;;;;;5068959;28;19931;-75
2022/05/16 14:45:01;;;;;;;;;;;21.90;99.90;;;;;;5066813;28;20275;-73
2022/05/16 14:47:43;;;;;;;;;;;21.80;99.90;;;;;;5060677;28;20289;-73
2022/05/16 14:50:15;;;;;;;;;;;21.90;99.90;;;;;;5052378;28;19925;-73
2022/05/16 14:52:54;;;;;;;;;;;21.90;99.90;;;;;;5069714;28;19947;-74
2022/05/16 14:55:52;;;;;;;;;;;22.00;99.90;;;;;;5064033;28;19928;-73
2022/05/16 14:58:24;;;;;;;;;;;21.80;99.90;;;;;;5066619;28;19924;-72
2022/05/16 15:06:48;;;;;;;;;;;22.30;99.90;;;;;;5049303;28;20362;-73
2022/05/16 15:09:20;;;;;;;;;;;22.50;99.90;;;;;;5052583;28;19925;-73
2022/05/16 15:11:53;;;;;;;;;;;22.50;99.90;;;;;;5063325;28;20388;-73
2022/05/16 15:14:27;;;;;;;;;;;22.60;99.90;;;;;;5067903;28;19931;-73
2022/05/16 15:16:58;;;;;;;;;;;22.70;99.90;;;;;;5069451;28;20304;-73
2022/05/16 15:19:30;;;;;;;;;;;22.80;99.90;;;;;;5071998;28;20027;-73
2022/05/16 15:22:07;;;;;;;;;;;23.00;99.90;;;;;;5070242;28;19924;-73
2022/05/16 15:24:40;;;;;;;;;;;23.30;99.90;;;;;;5068611;28;19932;-73
2022/05/16 15:27:09;;;;;;;;;;;23.40;99.90;;;;;;5070936;28;20667;-73
2022/05/16 15:29:41;;;;;;;;;;;23.30;99.90;;;;;;5067348;28;20515;-73
2022/05/16 15:32:13;;;;;;;;;;;23.30;99.90;;;;;;5071459;28;20300;-73
2022/05/16 15:34:41;;;;;;;;;;;23.50;99.90;;;;;;5066983;28;19931;-73
2022/05/16 15:37:14;;;;;;;;;;;23.30;99.90;;;;;;5070668;28;20340;-73
2022/05/16 15:39:49;;;;;;;;;;;23.50;99.90;;;;;;5071569;28;19929;-73
2022/05/16 15:42:23;;;;;;;;;;;23.80;99.90;;;;;;5068074;28;19928;-73
2022/05/16 15:44:53;;;;;;;;;;;23.90;99.90;;;;;;5066077;28;20390;-73